ELY541 LLBG-LGAV
Flight info
| Callsign | ELY541 |
|---|---|
| Flight time | 1h 41m |
| Altitude | 40000 |
| Route | SUVAS N128 OTHON DCT USINI UL995 VARIX |
| Aircraft | B772/H-SDE2E3FGHIJ5LORVWXY/LB1D1 |
Departure
| Time | 2026-05-04 16:01 |
|---|---|
| Airport | Ben Gurion International Airport (LLBG) |
Arrival
| Time | 2026-05-04 17:42 |
|---|---|
| Airport | Athens Eleftherios Venizelos International Airport (LGAV) |
| Time | Latitude | Longitude | Altitude | Speed | Heading |
|---|---|---|---|---|---|
| 2026-05-04 15:43 | 32.00603 | 34.87500 | 124 ft | 0 kts | 243° |
| 2026-05-04 15:47 | 32.00612 | 34.87523 | 119 ft | 4 kts | 244° |
| 2026-05-04 15:47 | 32.00622 | 34.87545 | 119 ft | 3 kts | 241° |
| 2026-05-04 15:48 | 32.00634 | 34.87565 | 119 ft | 4 kts | 202° |
| 2026-05-04 15:48 | 32.00650 | 34.87568 | 119 ft | 4 kts | 149° |
| 2026-05-04 15:48 | 32.00645 | 34.87587 | 119 ft | 4 kts | 123° |
| 2026-05-04 15:49 | 32.00632 | 34.87612 | 121 ft | 1 kts | 121° |
| 2026-05-04 15:49 | 32.00631 | 34.87613 | 121 ft | 0 kts | 121° |
| 2026-05-04 15:54 | 32.00589 | 34.87694 | 120 ft | 15 kts | 121° |
| 2026-05-04 15:54 | 32.00536 | 34.87798 | 119 ft | 15 kts | 121° |
| 2026-05-04 15:55 | 32.00537 | 34.87879 | 119 ft | 11 kts | 45° |
| 2026-05-04 15:55 | 32.00601 | 34.87925 | 121 ft | 11 kts | 32° |
| 2026-05-04 15:55 | 32.00664 | 34.87972 | 121 ft | 11 kts | 32° |
| 2026-05-04 15:55 | 32.00744 | 34.88030 | 120 ft | 17 kts | 32° |
| 2026-05-04 15:56 | 32.00842 | 34.88104 | 120 ft | 17 kts | 32° |
| 2026-05-04 15:56 | 32.00942 | 34.88175 | 121 ft | 17 kts | 32° |
| 2026-05-04 15:56 | 32.01042 | 34.88247 | 119 ft | 17 kts | 32° |
| 2026-05-04 15:56 | 32.01142 | 34.88320 | 121 ft | 17 kts | 31° |
| 2026-05-04 15:57 | 32.01241 | 34.88391 | 121 ft | 17 kts | 31° |
| 2026-05-04 15:57 | 32.01329 | 34.88482 | 120 ft | 17 kts | 43° |
| 2026-05-04 15:57 | 32.01404 | 34.88587 | 119 ft | 17 kts | 52° |
| 2026-05-04 15:57 | 32.01461 | 34.88708 | 119 ft | 17 kts | 65° |
| 2026-05-04 15:58 | 32.01495 | 34.88837 | 124 ft | 17 kts | 78° |
| 2026-05-04 15:58 | 32.01517 | 34.88972 | 120 ft | 17 kts | 79° |
| 2026-05-04 15:58 | 32.01538 | 34.89107 | 124 ft | 17 kts | 79° |
| 2026-05-04 15:58 | 32.01558 | 34.89243 | 122 ft | 17 kts | 80° |
| 2026-05-04 15:59 | 32.01579 | 34.89377 | 121 ft | 17 kts | 80° |
| 2026-05-04 15:59 | 32.01600 | 34.89513 | 121 ft | 17 kts | 80° |
| 2026-05-04 15:59 | 32.01627 | 34.89647 | 120 ft | 17 kts | 60° |
| 2026-05-04 15:59 | 32.01718 | 34.89730 | 122 ft | 17 kts | 30° |
| 2026-05-04 16:00 | 32.01826 | 34.89752 | 118 ft | 17 kts | 325° |
| 2026-05-04 16:00 | 32.01835 | 34.89639 | 119 ft | 14 kts | 251° |
| 2026-05-04 16:00 | 32.01784 | 34.89347 | 121 ft | 79 kts | 259° |
| 2026-05-04 16:00 | 32.01640 | 34.88366 | 153 ft | 154 kts | 260° |
| 2026-05-04 16:01 | 32.01466 | 34.87140 | 952 ft | 149 kts | 261° |
| 2026-05-04 16:01 | 32.01272 | 34.85906 | 1725 ft | 154 kts | 259° |
| 2026-05-04 16:01 | 32.01050 | 34.84642 | 2249 ft | 167 kts | 258° |
| 2026-05-04 16:01 | 32.00758 | 34.83223 | 2477 ft | 189 kts | 258° |
| 2026-05-04 16:02 | 32.00421 | 34.81613 | 2649 ft | 215 kts | 258° |
| 2026-05-04 16:02 | 32.00044 | 34.79826 | 3066 ft | 230 kts | 257° |
| 2026-05-04 16:02 | 31.99389 | 34.76732 | 4228 ft | 237 kts | 257° |
| 2026-05-04 16:03 | 31.99244 | 34.74797 | 4753 ft | 244 kts | 277° |
| 2026-05-04 16:03 | 31.99750 | 34.72885 | 5426 ft | 247 kts | 288° |
| 2026-05-04 16:03 | 32.00351 | 34.70987 | 6184 ft | 247 kts | 287° |
| 2026-05-04 16:03 | 32.00947 | 34.69084 | 6936 ft | 248 kts | 287° |
| 2026-05-04 16:04 | 32.01547 | 34.67163 | 7570 ft | 251 kts | 287° |
| 2026-05-04 16:04 | 32.02696 | 34.63221 | 8002 ft | 255 kts | 277° |
| 2026-05-04 16:04 | 32.02856 | 34.61151 | 8014 ft | 254 kts | 272° |
| 2026-05-04 16:05 | 32.02935 | 34.59072 | 8012 ft | 253 kts | 272° |
| 2026-05-04 16:05 | 32.03023 | 34.57006 | 8009 ft | 252 kts | 272° |
| 2026-05-04 16:05 | 32.03228 | 34.52892 | 8005 ft | 250 kts | 272° |
| 2026-05-04 16:06 | 32.03333 | 34.50844 | 8224 ft | 251 kts | 272° |
| 2026-05-04 16:06 | 32.03660 | 34.44578 | 10193 ft | 258 kts | 272° |
| 2026-05-04 16:07 | 32.03779 | 34.42426 | 10448 ft | 277 kts | 272° |
| 2026-05-04 16:07 | 32.04215 | 34.34829 | 11326 ft | 335 kts | 273° |
| 2026-05-04 16:08 | 32.04375 | 34.32063 | 12137 ft | 341 kts | 273° |
| 2026-05-04 16:08 | 32.04944 | 34.23713 | 15185 ft | 344 kts | 280° |
| 2026-05-04 16:09 | 32.07045 | 34.18530 | 16977 ft | 358 kts | 296° |
| 2026-05-04 16:09 | 32.09678 | 34.13479 | 18831 ft | 364 kts | 296° |
| 2026-05-04 16:10 | 32.12330 | 34.08315 | 20405 ft | 372 kts | 295° |
| 2026-05-04 16:11 | 32.16361 | 34.00365 | 22703 ft | 383 kts | 294° |
| 2026-05-04 16:11 | 32.17788 | 33.97673 | 23386 ft | 390 kts | 296° |
| 2026-05-04 16:12 | 32.22610 | 33.89690 | 25115 ft | 402 kts | 298° |
| 2026-05-04 16:12 | 32.27557 | 33.81594 | 26638 ft | 411 kts | 298° |
| 2026-05-04 16:13 | 32.30899 | 33.76055 | 27580 ft | 416 kts | 298° |
| 2026-05-04 16:13 | 32.34279 | 33.70424 | 28430 ft | 421 kts | 298° |
| 2026-05-04 16:14 | 32.37691 | 33.64729 | 29171 ft | 426 kts | 298° |
| 2026-05-04 16:14 | 32.41129 | 33.58983 | 29825 ft | 430 kts | 298° |
| 2026-05-04 16:15 | 32.46324 | 33.50284 | 30648 ft | 433 kts | 298° |
| 2026-05-04 16:16 | 32.49771 | 33.44508 | 31322 ft | 430 kts | 298° |
| 2026-05-04 16:16 | 32.54932 | 33.35834 | 32251 ft | 429 kts | 298° |
| 2026-05-04 16:17 | 32.58364 | 33.30052 | 32865 ft | 428 kts | 297° |
| 2026-05-04 16:18 | 32.63493 | 33.21394 | 33822 ft | 426 kts | 297° |
| 2026-05-04 16:18 | 32.65174 | 33.18554 | 34109 ft | 426 kts | 297° |
| 2026-05-04 16:19 | 32.70291 | 33.09888 | 34803 ft | 427 kts | 297° |
| 2026-05-04 16:19 | 32.73691 | 33.04121 | 35275 ft | 428 kts | 297° |
| 2026-05-04 16:20 | 32.78830 | 32.95387 | 35977 ft | 429 kts | 297° |
| 2026-05-04 16:20 | 32.82238 | 32.89585 | 36423 ft | 430 kts | 297° |
| 2026-05-04 16:21 | 32.87383 | 32.80806 | 37091 ft | 431 kts | 297° |
| 2026-05-04 16:22 | 32.90794 | 32.74976 | 37539 ft | 431 kts | 298° |
| 2026-05-04 16:22 | 32.95940 | 32.66162 | 38196 ft | 432 kts | 298° |
| 2026-05-04 16:23 | 33.01063 | 32.57367 | 38788 ft | 432 kts | 298° |
| 2026-05-04 16:24 | 33.07920 | 32.45562 | 39383 ft | 433 kts | 298° |
| 2026-05-04 16:25 | 33.11325 | 32.39686 | 39675 ft | 433 kts | 298° |
| 2026-05-04 16:26 | 33.18209 | 32.27776 | 39968 ft | 436 kts | 298° |
| 2026-05-04 16:26 | 33.23359 | 32.18845 | 39982 ft | 435 kts | 298° |
| 2026-05-04 16:28 | 33.31911 | 32.03960 | 39979 ft | 435 kts | 298° |
| 2026-05-04 16:29 | 33.43884 | 31.83018 | 39975 ft | 436 kts | 298° |
| 2026-05-04 16:31 | 33.52438 | 31.67999 | 39973 ft | 437 kts | 298° |
| 2026-05-04 16:32 | 33.62694 | 31.49914 | 39965 ft | 438 kts | 298° |
| 2026-05-04 16:33 | 33.69520 | 31.37826 | 39968 ft | 438 kts | 298° |
| 2026-05-04 16:34 | 33.74628 | 31.28753 | 39966 ft | 438 kts | 298° |
| 2026-05-04 16:35 | 33.84855 | 31.10521 | 39966 ft | 439 kts | 298° |
| 2026-05-04 16:36 | 33.89970 | 31.01367 | 39961 ft | 439 kts | 298° |
| 2026-05-04 16:37 | 33.95053 | 30.92249 | 39956 ft | 436 kts | 300° |
| 2026-05-04 16:38 | 34.01801 | 30.80101 | 39959 ft | 434 kts | 300° |
| 2026-05-04 16:39 | 34.10170 | 30.64967 | 39961 ft | 434 kts | 300° |
| 2026-05-04 16:40 | 34.16842 | 30.52856 | 39967 ft | 437 kts | 300° |
| 2026-05-04 16:41 | 34.25330 | 30.37390 | 39965 ft | 445 kts | 300° |
| 2026-05-04 16:43 | 34.33890 | 30.21729 | 39957 ft | 446 kts | 300° |
| 2026-05-04 16:43 | 34.38974 | 30.12393 | 39957 ft | 444 kts | 301° |
| 2026-05-04 16:45 | 34.50042 | 29.94510 | 39963 ft | 445 kts | 311° |
| 2026-05-04 16:46 | 34.60890 | 29.81141 | 39957 ft | 444 kts | 310° |
| 2026-05-04 16:47 | 34.69486 | 29.70426 | 39960 ft | 445 kts | 311° |
| 2026-05-04 16:48 | 34.78114 | 29.59630 | 39949 ft | 446 kts | 311° |
| 2026-05-04 16:49 | 34.86763 | 29.48775 | 39956 ft | 447 kts | 311° |
| 2026-05-04 16:50 | 34.95437 | 29.37854 | 39953 ft | 449 kts | 311° |
| 2026-05-04 16:51 | 35.01225 | 29.30547 | 39951 ft | 450 kts | 311° |
| 2026-05-04 16:52 | 35.10637 | 29.18630 | 39956 ft | 451 kts | 311° |
| 2026-05-04 16:53 | 35.16433 | 29.11271 | 39957 ft | 451 kts | 311° |
| 2026-05-04 16:54 | 35.25140 | 29.00184 | 39959 ft | 452 kts | 311° |
| 2026-05-04 16:55 | 35.38170 | 28.83525 | 39962 ft | 453 kts | 311° |
| 2026-05-04 16:56 | 35.49045 | 28.69558 | 39968 ft | 453 kts | 311° |
| 2026-05-04 16:57 | 35.55569 | 28.61149 | 39968 ft | 453 kts | 311° |
| 2026-05-04 16:58 | 35.64254 | 28.49924 | 39973 ft | 453 kts | 311° |
| 2026-05-04 17:00 | 35.77289 | 28.33005 | 39983 ft | 454 kts | 312° |
| 2026-05-04 17:01 | 35.88126 | 28.18872 | 39986 ft | 455 kts | 312° |
| 2026-05-04 17:02 | 35.96809 | 28.07505 | 39986 ft | 455 kts | 312° |
| 2026-05-04 17:03 | 36.03311 | 27.98968 | 40002 ft | 455 kts | 312° |
| 2026-05-04 17:03 | 36.09812 | 27.90409 | 40013 ft | 455 kts | 312° |
| 2026-05-04 17:04 | 36.18440 | 27.79016 | 40019 ft | 455 kts | 312° |
| 2026-05-04 17:05 | 36.27099 | 27.67543 | 40024 ft | 456 kts | 312° |
| 2026-05-04 17:06 | 36.33585 | 27.58923 | 40025 ft | 456 kts | 312° |
| 2026-05-04 17:07 | 36.39334 | 27.51263 | 40033 ft | 456 kts | 312° |
| 2026-05-04 17:07 | 36.44386 | 27.44517 | 40032 ft | 455 kts | 312° |
| 2026-05-04 17:08 | 36.50854 | 27.35859 | 40035 ft | 455 kts | 312° |
| 2026-05-04 17:09 | 36.55156 | 27.30089 | 40042 ft | 455 kts | 313° |
| 2026-05-04 17:09 | 36.59428 | 27.24347 | 40047 ft | 455 kts | 313° |
| 2026-05-04 17:10 | 36.69151 | 27.08909 | 40053 ft | 455 kts | 299° |
| 2026-05-04 17:11 | 36.71775 | 27.01713 | 40051 ft | 456 kts | 294° |
| 2026-05-04 17:12 | 36.75471 | 26.90795 | 40052 ft | 456 kts | 294° |
| 2026-05-04 17:13 | 36.81703 | 26.72684 | 40062 ft | 455 kts | 295° |
| 2026-05-04 17:14 | 36.86689 | 26.58162 | 40064 ft | 455 kts | 295° |
| 2026-05-04 17:15 | 36.90418 | 26.47257 | 40068 ft | 455 kts | 295° |
| 2026-05-04 17:16 | 36.95361 | 26.32702 | 40078 ft | 454 kts | 295° |
| 2026-05-04 17:17 | 37.00293 | 26.18147 | 40082 ft | 454 kts | 295° |
| 2026-05-04 17:18 | 37.05224 | 26.03599 | 40087 ft | 454 kts | 295° |
| 2026-05-04 17:19 | 37.10114 | 25.89089 | 40092 ft | 454 kts | 295° |
| 2026-05-04 17:20 | 37.15005 | 25.74502 | 40100 ft | 454 kts | 295° |
| 2026-05-04 17:20 | 37.17446 | 25.67197 | 39828 ft | 458 kts | 295° |
| 2026-05-04 17:20 | 37.18684 | 25.63485 | 39230 ft | 461 kts | 295° |
| 2026-05-04 17:21 | 37.21151 | 25.56069 | 37743 ft | 460 kts | 295° |
| 2026-05-04 17:21 | 37.23595 | 25.48684 | 36298 ft | 457 kts | 295° |
| 2026-05-04 17:22 | 37.24794 | 25.44987 | 35550 ft | 457 kts | 295° |
| 2026-05-04 17:22 | 37.25988 | 25.41290 | 34745 ft | 458 kts | 295° |
| 2026-05-04 17:23 | 37.29364 | 25.29957 | 31997 ft | 465 kts | 291° |
| 2026-05-04 17:23 | 37.30384 | 25.26088 | 31060 ft | 468 kts | 291° |
| 2026-05-04 17:23 | 37.32428 | 25.18322 | 29293 ft | 469 kts | 290° |
| 2026-05-04 17:24 | 37.33455 | 25.14451 | 28548 ft | 465 kts | 291° |
| 2026-05-04 17:24 | 37.36488 | 25.03071 | 26415 ft | 450 kts | 291° |
| 2026-05-04 17:25 | 37.37476 | 24.99356 | 25727 ft | 446 kts | 291° |
| 2026-05-04 17:25 | 37.39427 | 24.92013 | 24374 ft | 438 kts | 290° |
| 2026-05-04 17:26 | 37.41332 | 24.84824 | 22903 ft | 433 kts | 290° |
| 2026-05-04 17:26 | 37.44139 | 24.74192 | 20861 ft | 419 kts | 290° |
| 2026-05-04 17:27 | 37.45941 | 24.67341 | 19584 ft | 411 kts | 290° |
| 2026-05-04 17:27 | 37.47640 | 24.60517 | 18298 ft | 405 kts | 289° |
| 2026-05-04 17:28 | 37.49251 | 24.53769 | 16940 ft | 399 kts | 289° |
| 2026-05-04 17:29 | 37.51578 | 24.43885 | 15080 ft | 389 kts | 289° |
| 2026-05-04 17:29 | 37.53862 | 24.34088 | 13043 ft | 386 kts | 289° |
| 2026-05-04 17:30 | 37.56017 | 24.24787 | 11348 ft | 342 kts | 289° |
| 2026-05-04 17:31 | 37.57257 | 24.19341 | 10495 ft | 303 kts | 289° |
| 2026-05-04 17:31 | 37.59335 | 24.12549 | 9638 ft | 268 kts | 300° |
| 2026-05-04 17:32 | 37.61009 | 24.08325 | 8749 ft | 266 kts | 300° |
| 2026-05-04 17:33 | 37.63389 | 24.02294 | 7334 ft | 248 kts | 300° |
| 2026-05-04 17:33 | 37.64147 | 24.00364 | 6857 ft | 243 kts | 300° |
| 2026-05-04 17:34 | 37.66306 | 23.94819 | 5681 ft | 230 kts | 300° |
| 2026-05-04 17:34 | 37.67006 | 23.93046 | 5245 ft | 226 kts | 300° |
| 2026-05-04 17:35 | 37.69099 | 23.87867 | 3990 ft | 215 kts | 300° |
| 2026-05-04 17:35 | 37.70509 | 23.84479 | 3370 ft | 217 kts | 300° |
| 2026-05-04 17:35 | 37.71206 | 23.82817 | 3225 ft | 208 kts | 300° |
| 2026-05-04 17:36 | 37.71926 | 23.81308 | 3094 ft | 204 kts | 317° |
| 2026-05-04 17:36 | 37.73138 | 23.80545 | 3015 ft | 202 kts | 348° |
| 2026-05-04 17:36 | 37.74516 | 23.80158 | 3010 ft | 201 kts | 345° |
| 2026-05-04 17:36 | 37.75861 | 23.79679 | 3000 ft | 200 kts | 343° |
| 2026-05-04 17:37 | 37.77180 | 23.79180 | 3000 ft | 197 kts | 346° |
| 2026-05-04 17:37 | 37.78500 | 23.79209 | 2982 ft | 190 kts | 22° |
| 2026-05-04 17:37 | 37.79597 | 23.80049 | 3045 ft | 182 kts | 31° |
| 2026-05-04 17:37 | 37.80641 | 23.80967 | 2999 ft | 181 kts | 33° |
| 2026-05-04 17:38 | 37.81634 | 23.81892 | 2952 ft | 174 kts | 34° |
| 2026-05-04 17:38 | 37.82582 | 23.82789 | 2743 ft | 161 kts | 35° |
| 2026-05-04 17:38 | 37.83418 | 23.83585 | 2533 ft | 150 kts | 35° |
| 2026-05-04 17:38 | 37.84236 | 23.84364 | 2333 ft | 136 kts | 35° |
| 2026-05-04 17:39 | 37.85746 | 23.85797 | 1948 ft | 139 kts | 35° |
| 2026-05-04 17:39 | 37.86506 | 23.86520 | 1766 ft | 138 kts | 36° |
| 2026-05-04 17:39 | 37.87274 | 23.87249 | 1576 ft | 138 kts | 36° |
| 2026-05-04 17:40 | 37.88047 | 23.87986 | 1396 ft | 139 kts | 36° |
| 2026-05-04 17:40 | 37.88815 | 23.88716 | 1191 ft | 138 kts | 37° |
| 2026-05-04 17:40 | 37.89581 | 23.89442 | 1007 ft | 138 kts | 37° |
| 2026-05-04 17:40 | 37.90347 | 23.90167 | 815 ft | 138 kts | 38° |
| 2026-05-04 17:41 | 37.91117 | 23.90900 | 661 ft | 137 kts | 40° |
| 2026-05-04 17:41 | 37.91879 | 23.91631 | 454 ft | 137 kts | 38° |
| 2026-05-04 17:41 | 37.92385 | 23.92115 | 358 ft | 138 kts | 39° |
| 2026-05-04 17:41 | 37.93316 | 23.93003 | 298 ft | 103 kts | 36° |
| 2026-05-04 17:42 | 37.93642 | 23.93312 | 300 ft | 74 kts | 37° |
| 2026-05-04 17:42 | 37.93918 | 23.93654 | 301 ft | 45 kts | 67° |
| 2026-05-04 17:42 | 37.93917 | 23.93807 | 306 ft | 11 kts | 165° |
| 2026-05-04 17:42 | 37.93869 | 23.93794 | 306 ft | 11 kts | 206° |
| 2026-05-04 17:43 | 37.93806 | 23.93742 | 306 ft | 11 kts | 218° |
| 2026-05-04 17:43 | 37.93746 | 23.93684 | 306 ft | 11 kts | 217° |
| 2026-05-04 17:43 | 37.93686 | 23.93629 | 305 ft | 11 kts | 215° |
| 2026-05-04 17:43 | 37.93625 | 23.93575 | 306 ft | 11 kts | 215° |
| 2026-05-04 17:44 | 37.93565 | 23.93518 | 306 ft | 11 kts | 218° |
| 2026-05-04 17:44 | 37.93506 | 23.93460 | 307 ft | 11 kts | 218° |
| 2026-05-04 17:44 | 37.93447 | 23.93402 | 306 ft | 11 kts | 217° |
| 2026-05-04 17:44 | 37.93387 | 23.93346 | 306 ft | 11 kts | 216° |
| 2026-05-04 17:45 | 37.93327 | 23.93290 | 306 ft | 11 kts | 216° |
| 2026-05-04 17:45 | 37.93261 | 23.93256 | 305 ft | 11 kts | 172° |
| 2026-05-04 17:45 | 37.93233 | 23.93327 | 306 ft | 11 kts | 62° |
| 2026-05-04 17:45 | 37.93288 | 23.93391 | 308 ft | 11 kts | 38° |
| 2026-05-04 17:46 | 37.93346 | 23.93451 | 308 ft | 11 kts | 39° |
| 2026-05-04 17:46 | 37.93366 | 23.93535 | 307 ft | 11 kts | 107° |
| 2026-05-04 17:46 | 37.93327 | 23.93614 | 309 ft | 11 kts | 127° |
| 2026-05-04 17:46 | 37.93282 | 23.93690 | 308 ft | 11 kts | 127° |
| 2026-05-04 17:47 | 37.93236 | 23.93765 | 306 ft | 11 kts | 127° |
| 2026-05-04 17:47 | 37.93191 | 23.93840 | 308 ft | 11 kts | 127° |
| 2026-05-04 17:47 | 37.93146 | 23.93916 | 306 ft | 11 kts | 127° |
| 2026-05-04 17:47 | 37.93100 | 23.93991 | 308 ft | 11 kts | 127° |
| 2026-05-04 17:48 | 37.93055 | 23.94068 | 308 ft | 11 kts | 127° |
| 2026-05-04 17:48 | 37.93009 | 23.94144 | 306 ft | 11 kts | 127° |
| 2026-05-04 17:48 | 37.92964 | 23.94220 | 306 ft | 11 kts | 127° |
| 2026-05-04 17:48 | 37.92918 | 23.94297 | 308 ft | 11 kts | 127° |
| 2026-05-04 17:49 | 37.92882 | 23.94379 | 308 ft | 11 kts | 91° |
| 2026-05-04 17:49 | 37.92928 | 23.94451 | 306 ft | 11 kts | 39° |
| 2026-05-04 17:49 | 37.92988 | 23.94509 | 308 ft | 11 kts | 36° |
| 2026-05-04 17:49 | 37.93050 | 23.94566 | 307 ft | 11 kts | 34° |
| 2026-05-04 17:50 | 37.93122 | 23.94593 | 307 ft | 11 kts | 1° |
| 2026-05-04 17:50 | 37.93193 | 23.94597 | 305 ft | 9 kts | 8° |
| 2026-05-04 17:50 | 37.93252 | 23.94584 | 307 ft | 9 kts | 324° |
| 2026-05-04 17:50 | 37.93283 | 23.94544 | 309 ft | 1 kts | 307° |
| 2026-05-04 17:51 | 37.93283 | 23.94543 | 309 ft | 0 kts | 307° |